sensor_id;sensor_type;location;lat;lon;timestamp;P1;durP1;ratioP1;P2;durP2;ratioP2
50056;SDS011;36875;49.468;11.200;2022-11-15T00:01:53;2.97;;;1.80;;
50056;SDS011;36875;49.468;11.200;2022-11-15T00:04:21;2.92;;;1.70;;
50056;SDS011;36875;49.468;11.200;2022-11-15T00:06:48;2.33;;;1.58;;
50056;SDS011;36875;49.468;11.200;2022-11-15T00:09:15;2.70;;;1.70;;
50056;SDS011;36875;49.468;11.200;2022-11-15T00:11:41;3.30;;;1.88;;
50056;SDS011;36875;49.468;11.200;2022-11-15T00:14:07;5.20;;;1.75;;
50056;SDS011;36875;49.468;11.200;2022-11-15T00:16:35;2.35;;;1.60;;
50056;SDS011;36875;49.468;11.200;2022-11-15T00:19:01;4.47;;;2.13;;
50056;SDS011;36875;49.468;11.200;2022-11-15T00:21:27;2.60;;;1.80;;
50056;SDS011;36875;49.468;11.200;2022-11-15T00:23:54;3.55;;;1.70;;
50056;SDS011;36875;49.468;11.200;2022-11-15T00:26:19;3.50;;;1.73;;
50056;SDS011;36875;49.468;11.200;2022-11-15T00:28:45;1.90;;;1.42;;
50056;SDS011;36875;49.468;11.200;2022-11-15T00:31:11;2.65;;;1.58;;
50056;SDS011;36875;49.468;11.200;2022-11-15T00:33:38;2.78;;;1.80;;
50056;SDS011;36875;49.468;11.200;2022-11-15T00:36:04;3.15;;;1.58;;
50056;SDS011;36875;49.468;11.200;2022-11-15T00:38:32;2.53;;;1.70;;
50056;SDS011;36875;49.468;11.200;2022-11-15T00:41:01;2.72;;;1.50;;
50056;SDS011;36875;49.468;11.200;2022-11-15T00:43:28;3.90;;;1.75;;
50056;SDS011;36875;49.468;11.200;2022-11-15T00:45:53;2.80;;;1.70;;
50056;SDS011;36875;49.468;11.200;2022-11-15T00:48:19;3.05;;;1.77;;
50056;SDS011;36875;49.468;11.200;2022-11-15T00:50:44;2.55;;;1.73;;
50056;SDS011;36875;49.468;11.200;2022-11-15T00:53:10;2.40;;;1.80;;
50056;SDS011;36875;49.468;11.200;2022-11-15T00:55:35;2.13;;;1.40;;
50056;SDS011;36875;49.468;11.200;2022-11-15T00:58:02;2.47;;;1.70;;
50056;SDS011;36875;49.468;11.200;2022-11-15T01:00:28;2.88;;;1.70;;
50056;SDS011;36875;49.468;11.200;2022-11-15T01:02:54;2.97;;;1.73;;
50056;SDS011;36875;49.468;11.200;2022-11-15T01:05:19;3.45;;;1.70;;
50056;SDS011;36875;49.468;11.200;2022-11-15T01:07:45;2.85;;;1.67;;
50056;SDS011;36875;49.468;11.200;2022-11-15T01:10:10;3.42;;;1.60;;
50056;SDS011;36875;49.468;11.200;2022-11-15T01:12:36;2.25;;;1.60;;
50056;SDS011;36875;49.468;11.200;2022-11-15T01:15:03;2.95;;;1.80;;
50056;SDS011;36875;49.468;11.200;2022-11-15T01:17:29;2.17;;;1.45;;
50056;SDS011;36875;49.468;11.200;2022-11-15T01:19:55;2.63;;;1.80;;
50056;SDS011;36875;49.468;11.200;2022-11-15T01:22:20;3.50;;;1.80;;
50056;SDS011;36875;49.468;11.200;2022-11-15T01:24:46;2.40;;;1.63;;
50056;SDS011;36875;49.468;11.200;2022-11-15T01:27:11;2.63;;;1.52;;
50056;SDS011;36875;49.468;11.200;2022-11-15T01:29:37;2.15;;;1.70;;
50056;SDS011;36875;49.468;11.200;2022-11-15T01:32:04;1.95;;;1.60;;
50056;SDS011;36875;49.468;11.200;2022-11-15T01:34:29;2.85;;;1.60;;
50056;SDS011;36875;49.468;11.200;2022-11-15T01:36:55;2.95;;;1.55;;
50056;SDS011;36875;49.468;11.200;2022-11-15T01:39:20;3.65;;;1.58;;
50056;SDS011;36875;49.468;11.200;2022-11-15T01:41:46;2.20;;;1.65;;
50056;SDS011;36875;49.468;11.200;2022-11-15T01:47:09;1.85;;;1.45;;
50056;SDS011;36875;49.468;11.200;2022-11-15T01:49:39;2.53;;;1.55;;
50056;SDS011;36875;49.468;11.200;2022-11-15T01:52:16;3.55;;;1.55;;
50056;SDS011;36875;49.468;11.200;2022-11-15T01:54:44;2.42;;;1.60;;
50056;SDS011;36875;49.468;11.200;2022-11-15T01:57:10;2.45;;;1.50;;
50056;SDS011;36875;49.468;11.200;2022-11-15T01:59:39;2.38;;;1.80;;
50056;SDS011;36875;49.468;11.200;2022-11-15T02:02:09;2.22;;;1.42;;
50056;SDS011;36875;49.468;11.200;2022-11-15T02:04:35;2.90;;;1.60;;
50056;SDS011;36875;49.468;11.200;2022-11-15T02:07:05;2.20;;;1.50;;
50056;SDS011;36875;49.468;11.200;2022-11-15T02:09:33;2.25;;;1.52;;
50056;SDS011;36875;49.468;11.200;2022-11-15T02:12:01;3.15;;;1.50;;
50056;SDS011;36875;49.468;11.200;2022-11-15T02:14:26;3.10;;;1.70;;
50056;SDS011;36875;49.468;11.200;2022-11-15T02:16:56;4.45;;;1.58;;
50056;SDS011;36875;49.468;11.200;2022-11-15T02:19:38;3.33;;;1.55;;
50056;SDS011;36875;49.468;11.200;2022-11-15T02:22:21;2.22;;;1.60;;
50056;SDS011;36875;49.468;11.200;2022-11-15T02:25:03;2.28;;;1.27;;
50056;SDS011;36875;49.468;11.200;2022-11-15T02:28:00;1.80;;;1.50;;
50056;SDS011;36875;49.468;11.200;2022-11-15T02:30:55;2.72;;;1.63;;
50056;SDS011;36875;49.468;11.200;2022-11-15T02:33:30;2.45;;;1.50;;
50056;SDS011;36875;49.468;11.200;2022-11-15T02:36:02;1.88;;;1.30;;
50056;SDS011;36875;49.468;11.200;2022-11-15T02:38:32;2.40;;;1.53;;
50056;SDS011;36875;49.468;11.200;2022-11-15T02:41:04;2.38;;;1.60;;
50056;SDS011;36875;49.468;11.200;2022-11-15T02:43:36;2.30;;;1.48;;
50056;SDS011;36875;49.468;11.200;2022-11-15T02:46:25;1.85;;;1.60;;
50056;SDS011;36875;49.468;11.200;2022-11-15T02:49:15;2.35;;;1.40;;
50056;SDS011;36875;49.468;11.200;2022-11-15T02:51:41;1.75;;;1.50;;
50056;SDS011;36875;49.468;11.200;2022-11-15T02:54:10;1.70;;;1.40;;
50056;SDS011;36875;49.468;11.200;2022-11-15T02:56:39;1.90;;;1.50;;
50056;SDS011;36875;49.468;11.200;2022-11-15T02:59:08;2.95;;;2.25;;
50056;SDS011;36875;49.468;11.200;2022-11-15T03:01:50;2.25;;;1.50;;
50056;SDS011;36875;49.468;11.200;2022-11-15T03:04:29;3.78;;;1.70;;
50056;SDS011;36875;49.468;11.200;2022-11-15T03:07:04;2.80;;;1.60;;
50056;SDS011;36875;49.468;11.200;2022-11-15T03:09:34;2.10;;;1.50;;
50056;SDS011;36875;49.468;11.200;2022-11-15T03:12:04;2.25;;;1.50;;
50056;SDS011;36875;49.468;11.200;2022-11-15T03:14:36;2.17;;;1.52;;
50056;SDS011;36875;49.468;11.200;2022-11-15T03:17:10;1.92;;;1.30;;
50056;SDS011;36875;49.468;11.200;2022-11-15T03:19:43;2.25;;;1.60;;
50056;SDS011;36875;49.468;11.200;2022-11-15T03:22:11;2.00;;;1.48;;
50056;SDS011;36875;49.468;11.200;2022-11-15T03:24:40;2.08;;;1.48;;
50056;SDS011;36875;49.468;11.200;2022-11-15T03:27:08;3.15;;;1.50;;
50056;SDS011;36875;49.468;11.200;2022-11-15T03:29:37;2.53;;;1.48;;
50056;SDS011;36875;49.468;11.200;2022-11-15T03:32:09;2.33;;;1.70;;
50056;SDS011;36875;49.468;11.200;2022-11-15T03:34:39;1.75;;;1.23;;
50056;SDS011;36875;49.468;11.200;2022-11-15T03:37:09;1.85;;;1.50;;
50056;SDS011;36875;49.468;11.200;2022-11-15T03:39:39;2.15;;;1.40;;
50056;SDS011;36875;49.468;11.200;2022-11-15T03:42:08;2.50;;;1.77;;
50056;SDS011;36875;49.468;11.200;2022-11-15T03:44:44;2.15;;;1.40;;
50056;SDS011;36875;49.468;11.200;2022-11-15T03:47:19;2.00;;;1.33;;
50056;SDS011;36875;49.468;11.200;2022-11-15T03:49:49;2.80;;;1.52;;
50056;SDS011;36875;49.468;11.200;2022-11-15T03:52:18;1.88;;;1.40;;
50056;SDS011;36875;49.468;11.200;2022-11-15T03:54:47;2.00;;;1.38;;
50056;SDS011;36875;49.468;11.200;2022-11-15T03:57:14;2.60;;;1.63;;
50056;SDS011;36875;49.468;11.200;2022-11-15T03:59:40;3.00;;;1.42;;
50056;SDS011;36875;49.468;11.200;2022-11-15T04:02:05;2.10;;;1.50;;
50056;SDS011;36875;49.468;11.200;2022-11-15T04:04:32;2.15;;;1.70;;
50056;SDS011;36875;49.468;11.200;2022-11-15T04:06:58;1.98;;;1.50;;
50056;SDS011;36875;49.468;11.200;2022-11-15T04:09:23;1.67;;;1.38;;
50056;SDS011;36875;49.468;11.200;2022-11-15T04:11:49;3.00;;;1.60;;
50056;SDS011;36875;49.468;11.200;2022-11-15T04:14:14;3.10;;;1.70;;
50056;SDS011;36875;49.468;11.200;2022-11-15T04:16:39;2.80;;;1.73;;
50056;SDS011;36875;49.468;11.200;2022-11-15T04:19:07;2.67;;;1.73;;
50056;SDS011;36875;49.468;11.200;2022-11-15T04:21:53;3.42;;;1.58;;
50056;SDS011;36875;49.468;11.200;2022-11-15T04:24:36;1.92;;;1.45;;
50056;SDS011;36875;49.468;11.200;2022-11-15T04:27:02;2.28;;;1.63;;
50056;SDS011;36875;49.468;11.200;2022-11-15T04:29:28;1.98;;;1.48;;
50056;SDS011;36875;49.468;11.200;2022-11-15T04:31:59;2.20;;;1.38;;
50056;SDS011;36875;49.468;11.200;2022-11-15T04:34:25;2.40;;;1.40;;
50056;SDS011;36875;49.468;11.200;2022-11-15T04:36:50;1.92;;;1.60;;
50056;SDS011;36875;49.468;11.200;2022-11-15T04:39:35;3.25;;;1.58;;
50056;SDS011;36875;49.468;11.200;2022-11-15T04:42:01;2.45;;;1.48;;
50056;SDS011;36875;49.468;11.200;2022-11-15T04:44:26;2.13;;;1.70;;
50056;SDS011;36875;49.468;11.200;2022-11-15T04:46:52;2.80;;;1.52;;
50056;SDS011;36875;49.468;11.200;2022-11-15T04:49:17;2.33;;;1.42;;
50056;SDS011;36875;49.468;11.200;2022-11-15T04:51:43;2.30;;;1.70;;
50056;SDS011;36875;49.468;11.200;2022-11-15T04:54:08;1.75;;;1.40;;
50056;SDS011;36875;49.468;11.200;2022-11-15T04:56:35;2.30;;;1.52;;
50056;SDS011;36875;49.468;11.200;2022-11-15T04:59:00;1.60;;;1.30;;
50056;SDS011;36875;49.468;11.200;2022-11-15T05:01:26;3.55;;;1.60;;
50056;SDS011;36875;49.468;11.200;2022-11-15T05:03:52;2.05;;;1.42;;
50056;SDS011;36875;49.468;11.200;2022-11-15T05:06:35;2.03;;;1.50;;
50056;SDS011;36875;49.468;11.200;2022-11-15T05:09:01;2.20;;;1.65;;
50056;SDS011;36875;49.468;11.200;2022-11-15T05:11:27;1.92;;;1.40;;
50056;SDS011;36875;49.468;11.200;2022-11-15T05:13:53;2.33;;;1.70;;
50056;SDS011;36875;49.468;11.200;2022-11-15T05:16:19;2.10;;;1.40;;
50056;SDS011;36875;49.468;11.200;2022-11-15T05:18:44;2.17;;;1.50;;
50056;SDS011;36875;49.468;11.200;2022-11-15T05:21:11;1.90;;;1.60;;
50056;SDS011;36875;49.468;11.200;2022-11-15T05:23:38;1.98;;;1.55;;
50056;SDS011;36875;49.468;11.200;2022-11-15T05:26:04;2.47;;;1.52;;
50056;SDS011;36875;49.468;11.200;2022-11-15T05:28:31;2.20;;;1.50;;
50056;SDS011;36875;49.468;11.200;2022-11-15T05:31:01;1.70;;;1.40;;
50056;SDS011;36875;49.468;11.200;2022-11-15T05:33:26;1.92;;;1.40;;
50056;SDS011;36875;49.468;11.200;2022-11-15T05:35:56;2.35;;;1.60;;
50056;SDS011;36875;49.468;11.200;2022-11-15T05:38:27;2.47;;;1.40;;
50056;SDS011;36875;49.468;11.200;2022-11-15T05:40:53;2.25;;;1.50;;
50056;SDS011;36875;49.468;11.200;2022-11-15T05:43:19;1.77;;;1.30;;
50056;SDS011;36875;49.468;11.200;2022-11-15T05:45:45;1.65;;;1.42;;
50056;SDS011;36875;49.468;11.200;2022-11-15T05:48:12;2.58;;;1.60;;
50056;SDS011;36875;49.468;11.200;2022-11-15T05:50:38;2.22;;;1.42;;
50056;SDS011;36875;49.468;11.200;2022-11-15T05:53:09;2.17;;;1.50;;
50056;SDS011;36875;49.468;11.200;2022-11-15T05:55:37;1.70;;;1.40;;
50056;SDS011;36875;49.468;11.200;2022-11-15T05:58:04;2.30;;;1.27;;
50056;SDS011;36875;49.468;11.200;2022-11-15T06:00:29;2.55;;;1.90;;
50056;SDS011;36875;49.468;11.200;2022-11-15T06:02:55;2.00;;;1.63;;
50056;SDS011;36875;49.468;11.200;2022-11-15T06:05:22;2.38;;;1.50;;
50056;SDS011;36875;49.468;11.200;2022-11-15T06:07:47;2.13;;;1.48;;
50056;SDS011;36875;49.468;11.200;2022-11-15T06:10:13;2.90;;;2.00;;
50056;SDS011;36875;49.468;11.200;2022-11-15T06:12:38;2.47;;;1.50;;
50056;SDS011;36875;49.468;11.200;2022-11-15T06:15:04;2.47;;;1.50;;
50056;SDS011;36875;49.468;11.200;2022-11-15T06:17:30;2.13;;;1.50;;
50056;SDS011;36875;49.468;11.200;2022-11-15T06:19:56;3.42;;;1.60;;
50056;SDS011;36875;49.468;11.200;2022-11-15T06:22:23;2.13;;;1.63;;
50056;SDS011;36875;49.468;11.200;2022-11-15T06:24:48;3.83;;;1.85;;
50056;SDS011;36875;49.468;11.200;2022-11-15T06:27:14;3.25;;;1.83;;
50056;SDS011;36875;49.468;11.200;2022-11-15T06:29:39;4.88;;;1.88;;
50056;SDS011;36875;49.468;11.200;2022-11-15T06:32:05;2.58;;;1.83;;
50056;SDS011;36875;49.468;11.200;2022-11-15T06:34:31;3.35;;;1.75;;
50056;SDS011;36875;49.468;11.200;2022-11-15T06:36:56;3.28;;;2.10;;
50056;SDS011;36875;49.468;11.200;2022-11-15T06:39:23;5.88;;;1.92;;
50056;SDS011;36875;49.468;11.200;2022-11-15T06:41:48;8.15;;;3.58;;
50056;SDS011;36875;49.468;11.200;2022-11-15T06:44:14;8.15;;;2.30;;
50056;SDS011;36875;49.468;11.200;2022-11-15T06:46:39;9.20;;;2.50;;
50056;SDS011;36875;49.468;11.200;2022-11-15T06:49:05;5.35;;;2.50;;
50056;SDS011;36875;49.468;11.200;2022-11-15T06:51:30;6.88;;;3.00;;
50056;SDS011;36875;49.468;11.200;2022-11-15T06:53:56;7.68;;;2.70;;
50056;SDS011;36875;49.468;11.200;2022-11-15T06:56:22;9.02;;;2.60;;
50056;SDS011;36875;49.468;11.200;2022-11-15T06:58:48;18.90;;;10.32;;
50056;SDS011;36875;49.468;11.200;2022-11-15T07:01:13;22.95;;;11.50;;
50056;SDS011;36875;49.468;11.200;2022-11-15T07:03:40;19.92;;;7.90;;
50056;SDS011;36875;49.468;11.200;2022-11-15T07:06:06;19.17;;;7.50;;
50056;SDS011;36875;49.468;11.200;2022-11-15T07:08:33;23.15;;;6.47;;
50056;SDS011;36875;49.468;11.200;2022-11-15T07:10:59;16.42;;;5.80;;
50056;SDS011;36875;49.468;11.200;2022-11-15T07:13:28;24.40;;;6.07;;
50056;SDS011;36875;49.468;11.200;2022-11-15T07:15:57;19.98;;;5.88;;
50056;SDS011;36875;49.468;11.200;2022-11-15T07:18:23;23.40;;;5.75;;
50056;SDS011;36875;49.468;11.200;2022-11-15T07:20:48;19.13;;;6.65;;
50056;SDS011;36875;49.468;11.200;2022-11-15T07:23:14;20.83;;;6.05;;
50056;SDS011;36875;49.468;11.200;2022-11-15T07:25:39;19.05;;;6.10;;
50056;SDS011;36875;49.468;11.200;2022-11-15T07:28:05;15.55;;;5.43;;
50056;SDS011;36875;49.468;11.200;2022-11-15T07:30:32;15.10;;;4.70;;
50056;SDS011;36875;49.468;11.200;2022-11-15T07:32:58;15.30;;;4.93;;
50056;SDS011;36875;49.468;11.200;2022-11-15T07:35:25;20.73;;;4.70;;
50056;SDS011;36875;49.468;11.200;2022-11-15T07:37:55;16.67;;;4.70;;
50056;SDS011;36875;49.468;11.200;2022-11-15T07:40:21;14.50;;;4.60;;
50056;SDS011;36875;49.468;11.200;2022-11-15T07:42:47;16.02;;;5.13;;
50056;SDS011;36875;49.468;11.200;2022-11-15T07:45:19;18.15;;;4.38;;
50056;SDS011;36875;49.468;11.200;2022-11-15T07:47:46;16.63;;;5.20;;
50056;SDS011;36875;49.468;11.200;2022-11-15T07:50:12;15.10;;;4.38;;
50056;SDS011;36875;49.468;11.200;2022-11-15T07:52:37;9.90;;;4.20;;
50056;SDS011;36875;49.468;11.200;2022-11-15T07:55:03;12.70;;;4.35;;
50056;SDS011;36875;49.468;11.200;2022-11-15T07:57:29;10.43;;;4.18;;
50056;SDS011;36875;49.468;11.200;2022-11-15T07:59:55;16.38;;;4.90;;
50056;SDS011;36875;49.468;11.200;2022-11-15T08:02:20;9.90;;;4.05;;
50056;SDS011;36875;49.468;11.200;2022-11-15T08:04:47;11.85;;;4.03;;
50056;SDS011;36875;49.468;11.200;2022-11-15T08:07:13;9.65;;;4.25;;
50056;SDS011;36875;49.468;11.200;2022-11-15T08:09:38;11.95;;;3.90;;
50056;SDS011;36875;49.468;11.200;2022-11-15T08:12:04;13.65;;;3.97;;
50056;SDS011;36875;49.468;11.200;2022-11-15T08:14:30;9.55;;;3.47;;
50056;SDS011;36875;49.468;11.200;2022-11-15T08:16:56;17.48;;;3.85;;
50056;SDS011;36875;49.468;11.200;2022-11-15T08:19:21;11.32;;;3.55;;
50056;SDS011;36875;49.468;11.200;2022-11-15T08:21:48;12.70;;;3.58;;
50056;SDS011;36875;49.468;11.200;2022-11-15T08:24:14;14.60;;;4.07;;
50056;SDS011;36875;49.468;11.200;2022-11-15T08:26:40;9.93;;;3.42;;
50056;SDS011;36875;49.468;11.200;2022-11-15T08:29:05;8.35;;;3.28;;
50056;SDS011;36875;49.468;11.200;2022-11-15T08:31:30;10.30;;;3.65;;
50056;SDS011;36875;49.468;11.200;2022-11-15T08:33:56;8.63;;;3.53;;
50056;SDS011;36875;49.468;11.200;2022-11-15T08:36:22;8.43;;;3.38;;
50056;SDS011;36875;49.468;11.200;2022-11-15T08:38:49;11.55;;;3.53;;
50056;SDS011;36875;49.468;11.200;2022-11-15T08:41:16;13.43;;;3.35;;
50056;SDS011;36875;49.468;11.200;2022-11-15T08:43:48;6.53;;;3.08;;
50056;SDS011;36875;49.468;11.200;2022-11-15T08:46:14;8.77;;;3.15;;
50056;SDS011;36875;49.468;11.200;2022-11-15T08:48:40;6.75;;;2.85;;
50056;SDS011;36875;49.468;11.200;2022-11-15T08:51:05;8.23;;;2.90;;
50056;SDS011;36875;49.468;11.200;2022-11-15T08:53:34;7.35;;;3.25;;
50056;SDS011;36875;49.468;11.200;2022-11-15T08:56:01;8.30;;;3.65;;
50056;SDS011;36875;49.468;11.200;2022-11-15T08:58:27;7.05;;;2.83;;
50056;SDS011;36875;49.468;11.200;2022-11-15T09:00:53;7.20;;;3.15;;
50056;SDS011;36875;49.468;11.200;2022-11-15T09:03:18;6.00;;;2.75;;
50056;SDS011;36875;49.468;11.200;2022-11-15T09:05:44;6.15;;;2.70;;
50056;SDS011;36875;49.468;11.200;2022-11-15T09:08:09;5.97;;;2.40;;
50056;SDS011;36875;49.468;11.200;2022-11-15T09:10:36;6.47;;;3.03;;
50056;SDS011;36875;49.468;11.200;2022-11-15T09:13:03;6.70;;;2.55;;
50056;SDS011;36875;49.468;11.200;2022-11-15T09:15:28;6.40;;;2.83;;
50056;SDS011;36875;49.468;11.200;2022-11-15T09:17:54;7.65;;;2.80;;
50056;SDS011;36875;49.468;11.200;2022-11-15T09:20:23;5.20;;;2.38;;
50056;SDS011;36875;49.468;11.200;2022-11-15T09:22:48;7.90;;;2.90;;
50056;SDS011;36875;49.468;11.200;2022-11-15T09:25:14;7.75;;;2.95;;
50056;SDS011;36875;49.468;11.200;2022-11-15T09:27:39;6.07;;;2.65;;
50056;SDS011;36875;49.468;11.200;2022-11-15T09:30:07;5.93;;;2.40;;
50056;SDS011;36875;49.468;11.200;2022-11-15T09:32:33;5.60;;;1.95;;
50056;SDS011;36875;49.468;11.200;2022-11-15T09:34:58;6.03;;;2.58;;
50056;SDS011;36875;49.468;11.200;2022-11-15T09:37:24;6.72;;;2.42;;
50056;SDS011;36875;49.468;11.200;2022-11-15T09:39:49;4.78;;;2.30;;
50056;SDS011;36875;49.468;11.200;2022-11-15T09:42:20;4.53;;;2.10;;
50056;SDS011;36875;49.468;11.200;2022-11-15T09:44:58;5.28;;;2.38;;
50056;SDS011;36875;49.468;11.200;2022-11-15T09:47:40;4.93;;;2.25;;
50056;SDS011;36875;49.468;11.200;2022-11-15T09:50:22;4.55;;;2.22;;
50056;SDS011;36875;49.468;11.200;2022-11-15T09:52:56;6.18;;;2.25;;
50056;SDS011;36875;49.468;11.200;2022-11-15T09:55:23;4.40;;;2.30;;
50056;SDS011;36875;49.468;11.200;2022-11-15T09:58:00;4.95;;;2.25;;
50056;SDS011;36875;49.468;11.200;2022-11-15T10:00:33;4.60;;;1.90;;
50056;SDS011;36875;49.468;11.200;2022-11-15T10:03:08;4.72;;;2.10;;
50056;SDS011;36875;49.468;11.200;2022-11-15T10:05:37;5.05;;;2.00;;
50056;SDS011;36875;49.468;11.200;2022-11-15T10:08:06;6.10;;;2.10;;
50056;SDS011;36875;49.468;11.200;2022-11-15T10:10:42;4.57;;;2.20;;
50056;SDS011;36875;49.468;11.200;2022-11-15T10:13:12;4.20;;;2.00;;
50056;SDS011;36875;49.468;11.200;2022-11-15T10:15:42;3.70;;;1.90;;
50056;SDS011;36875;49.468;11.200;2022-11-15T10:18:15;4.43;;;1.98;;
50056;SDS011;36875;49.468;11.200;2022-11-15T10:20:48;3.50;;;1.90;;
50056;SDS011;36875;49.468;11.200;2022-11-15T10:23:15;4.22;;;1.70;;
50056;SDS011;36875;49.468;11.200;2022-11-15T10:25:43;7.28;;;2.13;;
50056;SDS011;36875;49.468;11.200;2022-11-15T10:28:11;4.97;;;2.03;;
50056;SDS011;36875;49.468;11.200;2022-11-15T10:30:41;4.15;;;2.17;;
50056;SDS011;36875;49.468;11.200;2022-11-15T10:33:20;3.67;;;1.92;;
50056;SDS011;36875;49.468;11.200;2022-11-15T10:35:54;5.88;;;2.10;;
50056;SDS011;36875;49.468;11.200;2022-11-15T10:38:49;6.35;;;2.53;;
50056;SDS011;36875;49.468;11.200;2022-11-15T10:41:19;5.80;;;2.80;;
50056;SDS011;36875;49.468;11.200;2022-11-15T10:43:46;5.47;;;2.60;;
50056;SDS011;36875;49.468;11.200;2022-11-15T10:46:28;5.60;;;2.63;;
50056;SDS011;36875;49.468;11.200;2022-11-15T10:48:55;5.75;;;2.63;;
50056;SDS011;36875;49.468;11.200;2022-11-15T10:51:40;7.05;;;2.63;;
50056;SDS011;36875;49.468;11.200;2022-11-15T10:54:10;6.25;;;2.67;;
50056;SDS011;36875;49.468;11.200;2022-11-15T10:56:37;8.63;;;2.67;;
50056;SDS011;36875;49.468;11.200;2022-11-15T10:59:09;8.77;;;2.55;;
50056;SDS011;36875;49.468;11.200;2022-11-15T11:01:45;5.45;;;2.50;;
50056;SDS011;36875;49.468;11.200;2022-11-15T11:04:13;4.90;;;2.45;;
50056;SDS011;36875;49.468;11.200;2022-11-15T11:06:46;8.43;;;2.60;;
50056;SDS011;36875;49.468;11.200;2022-11-15T11:09:20;6.45;;;2.40;;
50056;SDS011;36875;49.468;11.200;2022-11-15T11:11:48;5.10;;;2.40;;
50056;SDS011;36875;49.468;11.200;2022-11-15T11:14:17;6.05;;;2.45;;
50056;SDS011;36875;49.468;11.200;2022-11-15T11:16:47;7.20;;;2.50;;
50056;SDS011;36875;49.468;11.200;2022-11-15T11:19:39;4.78;;;2.42;;
50056;SDS011;36875;49.468;11.200;2022-11-15T11:22:18;4.35;;;1.92;;
50056;SDS011;36875;49.468;11.200;2022-11-15T11:24:51;6.03;;;2.30;;
50056;SDS011;36875;49.468;11.200;2022-11-15T11:27:29;5.20;;;2.00;;
50056;SDS011;36875;49.468;11.200;2022-11-15T11:30:03;4.38;;;2.10;;
50056;SDS011;36875;49.468;11.200;2022-11-15T11:32:40;4.15;;;2.00;;
50056;SDS011;36875;49.468;11.200;2022-11-15T11:35:17;4.53;;;2.15;;
50056;SDS011;36875;49.468;11.200;2022-11-15T11:37:49;6.18;;;2.40;;
50056;SDS011;36875;49.468;11.200;2022-11-15T11:40:20;6.60;;;2.10;;
50056;SDS011;36875;49.468;11.200;2022-11-15T11:42:55;6.50;;;2.30;;
50056;SDS011;36875;49.468;11.200;2022-11-15T11:48:21;5.10;;;2.05;;
50056;SDS011;36875;49.468;11.200;2022-11-15T11:51:01;4.25;;;2.20;;
50056;SDS011;36875;49.468;11.200;2022-11-15T11:53:35;3.08;;;1.90;;
50056;SDS011;36875;49.468;11.200;2022-11-15T11:56:08;3.35;;;1.80;;
50056;SDS011;36875;49.468;11.200;2022-11-15T11:58:43;3.63;;;1.77;;
50056;SDS011;36875;49.468;11.200;2022-11-15T12:01:12;3.65;;;2.00;;
50056;SDS011;36875;49.468;11.200;2022-11-15T12:03:48;5.97;;;2.05;;
50056;SDS011;36875;49.468;11.200;2022-11-15T12:06:24;5.40;;;2.05;;
50056;SDS011;36875;49.468;11.200;2022-11-15T12:08:58;4.22;;;2.13;;
50056;SDS011;36875;49.468;11.200;2022-11-15T12:11:32;5.05;;;1.80;;
50056;SDS011;36875;49.468;11.200;2022-11-15T12:14:03;4.25;;;2.00;;
50056;SDS011;36875;49.468;11.200;2022-11-15T12:16:41;2.80;;;1.60;;
50056;SDS011;36875;49.468;11.200;2022-11-15T12:19:08;2.10;;;1.45;;
50056;SDS011;36875;49.468;11.200;2022-11-15T12:21:36;3.15;;;1.55;;
50056;SDS011;36875;49.468;11.200;2022-11-15T12:24:11;2.67;;;1.65;;
50056;SDS011;36875;49.468;11.200;2022-11-15T12:26:41;3.83;;;1.60;;
50056;SDS011;36875;49.468;11.200;2022-11-15T12:29:15;4.95;;;1.83;;
50056;SDS011;36875;49.468;11.200;2022-11-15T12:31:44;3.53;;;1.70;;
50056;SDS011;36875;49.468;11.200;2022-11-15T12:34:15;4.20;;;1.50;;
50056;SDS011;36875;49.468;11.200;2022-11-15T12:37:01;3.95;;;1.52;;
50056;SDS011;36875;49.468;11.200;2022-11-15T12:42:56;5.18;;;1.60;;
50056;SDS011;36875;49.468;11.200;2022-11-15T12:45:37;3.75;;;1.70;;
50056;SDS011;36875;49.468;11.200;2022-11-15T12:51:23;3.22;;;1.50;;
50056;SDS011;36875;49.468;11.200;2022-11-15T12:57:23;4.25;;;1.45;;
50056;SDS011;36875;49.468;11.200;2022-11-15T12:59:54;3.55;;;1.55;;
50056;SDS011;36875;49.468;11.200;2022-11-15T13:02:23;3.58;;;1.60;;
50056;SDS011;36875;49.468;11.200;2022-11-15T13:04:51;5.38;;;1.80;;
50056;SDS011;36875;49.468;11.200;2022-11-15T13:12:59;5.72;;;1.67;;
50056;SDS011;36875;49.468;11.200;2022-11-15T13:18:35;2.95;;;1.92;;
50056;SDS011;36875;49.468;11.200;2022-11-15T13:23:51;5.18;;;1.65;;
50056;SDS011;36875;49.468;11.200;2022-11-15T13:26:18;3.55;;;1.73;;
50056;SDS011;36875;49.468;11.200;2022-11-15T13:28:47;6.82;;;1.60;;
50056;SDS011;36875;49.468;11.200;2022-11-15T13:31:20;3.45;;;1.52;;
50056;SDS011;36875;49.468;11.200;2022-11-15T13:33:48;4.78;;;1.55;;
50056;SDS011;36875;49.468;11.200;2022-11-15T13:36:15;2.85;;;1.40;;
50056;SDS011;36875;49.468;11.200;2022-11-15T13:38:44;4.63;;;1.30;;
50056;SDS011;36875;49.468;11.200;2022-11-15T13:41:21;1.85;;;1.30;;
50056;SDS011;36875;49.468;11.200;2022-11-15T13:43:50;2.95;;;1.30;;
50056;SDS011;36875;49.468;11.200;2022-11-15T13:46:17;1.63;;;1.20;;
50056;SDS011;36875;49.468;11.200;2022-11-15T13:48:44;4.45;;;1.40;;
50056;SDS011;36875;49.468;11.200;2022-11-15T13:51:14;4.97;;;1.50;;
50056;SDS011;36875;49.468;11.200;2022-11-15T13:53:44;3.08;;;1.40;;
50056;SDS011;36875;49.468;11.200;2022-11-15T13:56:13;4.22;;;1.63;;
50056;SDS011;36875;49.468;11.200;2022-11-15T13:58:39;3.53;;;1.40;;
50056;SDS011;36875;49.468;11.200;2022-11-15T14:01:08;2.55;;;1.40;;
50056;SDS011;36875;49.468;11.200;2022-11-15T14:03:41;2.75;;;1.17;;
50056;SDS011;36875;49.468;11.200;2022-11-15T14:06:15;2.28;;;1.50;;
50056;SDS011;36875;49.468;11.200;2022-11-15T14:08:42;2.75;;;1.40;;
50056;SDS011;36875;49.468;11.200;2022-11-15T14:11:24;3.30;;;1.25;;
50056;SDS011;36875;49.468;11.200;2022-11-15T14:14:01;3.95;;;1.52;;
50056;SDS011;36875;49.468;11.200;2022-11-15T14:16:39;4.20;;;1.58;;
50056;SDS011;36875;49.468;11.200;2022-11-15T14:19:06;5.07;;;1.70;;
50056;SDS011;36875;49.468;11.200;2022-11-15T14:21:35;2.85;;;1.50;;
50056;SDS011;36875;49.468;11.200;2022-11-15T14:24:14;5.03;;;1.55;;
50056;SDS011;36875;49.468;11.200;2022-11-15T14:26:40;3.80;;;1.63;;
50056;SDS011;36875;49.468;11.200;2022-11-15T14:29:23;6.57;;;1.42;;
50056;SDS011;36875;49.468;11.200;2022-11-15T14:31:51;4.43;;;1.40;;
50056;SDS011;36875;49.468;11.200;2022-11-15T14:34:17;4.43;;;1.52;;
50056;SDS011;36875;49.468;11.200;2022-11-15T14:36:42;3.90;;;1.40;;
50056;SDS011;36875;49.468;11.200;2022-11-15T14:39:08;4.63;;;1.63;;
50056;SDS011;36875;49.468;11.200;2022-11-15T14:41:34;3.28;;;1.40;;
50056;SDS011;36875;49.468;11.200;2022-11-15T14:44:03;8.77;;;1.63;;
50056;SDS011;36875;49.468;11.200;2022-11-15T14:46:29;7.20;;;1.77;;
50056;SDS011;36875;49.468;11.200;2022-11-15T14:48:56;5.85;;;1.90;;
50056;SDS011;36875;49.468;11.200;2022-11-15T14:51:22;6.05;;;2.08;;
50056;SDS011;36875;49.468;11.200;2022-11-15T14:53:47;3.95;;;1.60;;
50056;SDS011;36875;49.468;11.200;2022-11-15T14:56:13;7.78;;;1.83;;
50056;SDS011;36875;49.468;11.200;2022-11-15T14:58:39;6.80;;;1.40;;
50056;SDS011;36875;49.468;11.200;2022-11-15T15:01:09;6.03;;;1.35;;
50056;SDS011;36875;49.468;11.200;2022-11-15T15:03:37;4.95;;;1.67;;
50056;SDS011;36875;49.468;11.200;2022-11-15T15:06:04;4.50;;;1.40;;
50056;SDS011;36875;49.468;11.200;2022-11-15T15:08:30;7.13;;;1.80;;
50056;SDS011;36875;49.468;11.200;2022-11-15T15:10:56;6.30;;;1.50;;
50056;SDS011;36875;49.468;11.200;2022-11-15T15:13:22;4.35;;;1.80;;